Time,TemperatureF,DewpointF,PressureIn,WindDirection,WindDirectionDegrees,WindSpeedMPH,WindSpeedGustMPH,Humidity,HourlyPrecipIn,Conditions,Clouds,dailyrainin,SolarRadiationWatts/m^2,SoftwareType,DateUTC
2013-07-28 00:02:00,90.0,60.0,-100.00,West,273,3.0,10.0,37,0.00,,,0.00,1.000000,,2013-07-28 07:02:00,
2013-07-28 00:12:00,90.0,60.0,-100.00,West,273,3.0,10.0,37,0.00,,,0.00,1.000000,,2013-07-28 07:12:00,
2013-07-28 00:43:00,89.0,63.0,-100.00,SE,129,5.0,6.0,42,0.00,,,0.00,1.000000,,2013-07-28 07:43:00,
2013-07-28 00:53:00,89.0,63.0,-100.00,SE,129,5.0,6.0,42,0.00,,,0.00,1.000000,,2013-07-28 07:53:00,
2013-07-28 01:02:00,89.0,63.0,-100.00,SE,129,5.0,6.0,42,0.00,,,0.00,1.000000,,2013-07-28 08:02:00,
2013-07-28 01:12:00,89.0,63.0,-100.00,SE,129,5.0,6.0,42,0.00,,,0.00,1.000000,,2013-07-28 08:12:00,
2013-07-28 01:43:00,87.0,64.0,-100.00,SW,230,2.0,5.0,46,0.00,,,0.00,1.000000,,2013-07-28 08:43:00,
2013-07-28 01:53:00,87.0,64.0,-100.00,SW,230,2.0,5.0,46,0.00,,,0.00,1.000000,,2013-07-28 08:53:00,
2013-07-28 02:02:00,87.0,64.0,-100.00,SW,230,2.0,5.0,46,0.00,,,0.00,1.000000,,2013-07-28 09:02:00,
2013-07-28 02:12:00,87.0,64.0,-100.00,SW,230,2.0,5.0,46,0.00,,,0.00,1.000000,,2013-07-28 09:12:00,
2013-07-28 02:43:00,86.0,63.0,-100.00,West,277,2.0,5.0,46,0.00,,,0.00,1.000000,,2013-07-28 09:43:00,
2013-07-28 02:53:00,86.0,63.0,-100.00,West,277,2.0,5.0,46,0.00,,,0.00,1.000000,,2013-07-28 09:53:00,
2013-07-28 03:02:00,86.0,63.0,-100.00,West,277,2.0,5.0,46,0.00,,,0.00,1.000000,,2013-07-28 10:02:00,
2013-07-28 03:12:00,86.0,63.0,-100.00,West,277,2.0,5.0,46,0.00,,,0.00,1.000000,,2013-07-28 10:12:00,
2013-07-28 03:42:00,87.0,61.0,-100.00,SSW,195,1.0,3.0,42,0.00,,,0.00,1.000000,,2013-07-28 10:42:00,
2013-07-28 03:53:00,87.0,61.0,-100.00,SSW,195,1.0,3.0,42,0.00,,,0.00,1.000000,,2013-07-28 10:53:00,
2013-07-28 04:02:00,87.0,61.0,-100.00,SSW,195,1.0,3.0,42,0.00,,,0.00,1.000000,,2013-07-28 11:02:00,
2013-07-28 04:12:00,87.0,61.0,-100.00,SSW,195,1.0,3.0,42,0.00,,,0.00,1.000000,,2013-07-28 11:12:00,
2013-07-28 04:43:00,85.0,62.0,-100.00,SSW,197,0.0,5.0,47,0.00,,,0.00,1.000000,,2013-07-28 11:43:00,
2013-07-28 04:54:00,85.0,62.0,-100.00,SSW,197,0.0,5.0,47,0.00,,,0.00,1.000000,,2013-07-28 11:54:00,
2013-07-28 05:02:00,85.0,62.0,-100.00,SSW,197,0.0,5.0,47,0.00,,,0.00,1.000000,,2013-07-28 12:02:00,
2013-07-28 05:12:00,85.0,62.0,-100.00,SSW,197,0.0,5.0,47,0.00,,,0.00,1.000000,,2013-07-28 12:12:00,
2013-07-28 05:43:00,85.0,61.0,-100.00,South,177,1.0,6.0,44,0.00,,,0.00,1.000000,,2013-07-28 12:43:00,
2013-07-28 05:53:00,85.0,61.0,-100.00,South,177,1.0,6.0,44,0.00,,,0.00,1.000000,,2013-07-28 12:53:00,
2013-07-28 06:02:00,85.0,61.0,-100.00,South,177,1.0,6.0,44,0.00,,,0.00,1.000000,,2013-07-28 13:02:00,
2013-07-28 06:12:00,85.0,61.0,-100.00,South,177,1.0,6.0,44,0.00,,,0.00,1.000000,,2013-07-28 13:12:00,
2013-07-28 06:43:00,85.0,59.0,-100.00,SSE,148,7.0,9.0,42,0.00,,,0.00,6.000000,,2013-07-28 13:43:00,
2013-07-28 06:53:00,85.0,59.0,-100.00,SSE,148,7.0,9.0,42,0.00,,,0.00,6.000000,,2013-07-28 13:53:00,
2013-07-28 07:02:00,85.0,59.0,-100.00,SSE,148,7.0,9.0,42,0.00,,,0.00,6.000000,,2013-07-28 14:02:00,
2013-07-28 07:12:00,85.0,59.0,-100.00,SSE,148,7.0,9.0,42,0.00,,,0.00,6.000000,,2013-07-28 14:12:00,
2013-07-28 07:43:00,88.0,61.0,-100.00,SSE,150,8.0,11.0,40,0.00,,,0.00,121.000000,,2013-07-28 14:43:00,
2013-07-28 07:53:00,88.0,61.0,-100.00,SSE,150,8.0,11.0,40,0.00,,,0.00,121.000000,,2013-07-28 14:53:00,
2013-07-28 08:12:00,88.0,61.0,-100.00,SSE,150,8.0,11.0,40,0.00,,,0.00,121.000000,,2013-07-28 15:12:00,
2013-07-28 08:43:00,93.0,60.0,-100.00,SE,133,4.0,11.0,34,0.00,,,0.00,324.000000,,2013-07-28 15:43:00,
2013-07-28 08:53:00,93.0,60.0,-100.00,SE,133,4.0,11.0,34,0.00,,,0.00,324.000000,,2013-07-28 15:53:00,
2013-07-28 09:02:00,93.0,60.0,-100.00,SE,133,4.0,11.0,34,0.00,,,0.00,324.000000,,2013-07-28 16:02:00,
2013-07-28 09:12:00,93.0,60.0,-100.00,SE,133,4.0,11.0,34,0.00,,,0.00,324.000000,,2013-07-28 16:12:00,
2013-07-28 09:43:00,98.0,46.0,-100.00,NNW,333,3.0,6.0,17,0.00,,,0.00,536.000000,,2013-07-28 16:43:00,
2013-07-28 09:52:00,98.0,46.0,-100.00,NNW,333,3.0,6.0,17,0.00,,,0.00,536.000000,,2013-07-28 16:52:00,
2013-07-28 10:02:00,98.0,46.0,-100.00,NNW,333,3.0,6.0,17,0.00,,,0.00,536.000000,,2013-07-28 17:02:00,
2013-07-28 10:12:00,98.0,46.0,-100.00,NNW,333,3.0,6.0,17,0.00,,,0.00,536.000000,,2013-07-28 17:12:00,
2013-07-28 10:43:00,100.0,47.0,-100.00,West,259,3.0,8.0,17,0.00,,,0.00,733.000000,,2013-07-28 17:43:00,
2013-07-28 10:53:00,100.0,47.0,-100.00,West,259,3.0,8.0,17,0.00,,,0.00,733.000000,,2013-07-28 17:53:00,
2013-07-28 11:02:00,100.0,47.0,-100.00,West,259,3.0,8.0,17,0.00,,,0.00,733.000000,,2013-07-28 18:02:00,
2013-07-28 11:12:00,100.0,47.0,-100.00,West,259,3.0,8.0,17,0.00,,,0.00,733.000000,,2013-07-28 18:12:00,
2013-07-28 11:43:00,103.0,46.0,-100.00,WNW,293,5.0,9.0,15,0.00,,,0.00,883.000000,,2013-07-28 18:43:00,
2013-07-28 11:52:00,103.0,46.0,-100.00,WNW,293,5.0,9.0,15,0.00,,,0.00,883.000000,,2013-07-28 18:52:00,
2013-07-28 12:02:00,103.0,46.0,-100.00,WNW,293,5.0,9.0,15,0.00,,,0.00,883.000000,,2013-07-28 19:02:00,
2013-07-28 12:12:00,103.0,46.0,-100.00,WNW,293,5.0,9.0,15,0.00,,,0.00,883.000000,,2013-07-28 19:12:00,
2013-07-28 12:43:00,104.0,45.0,-100.00,SSW,206,6.0,13.0,14,0.00,,,0.00,975.000000,,2013-07-28 19:43:00,
2013-07-28 12:52:00,104.0,45.0,-100.00,SSW,206,6.0,13.0,14,0.00,,,0.00,975.000000,,2013-07-28 19:52:00,
2013-07-28 13:02:00,104.0,45.0,-100.00,SSW,206,6.0,13.0,14,0.00,,,0.00,975.000000,,2013-07-28 20:02:00,
2013-07-28 13:12:00,104.0,45.0,-100.00,SSW,206,6.0,13.0,14,0.00,,,0.00,975.000000,,2013-07-28 20:12:00,
2013-07-28 13:43:00,106.0,45.0,-100.00,WNW,290,6.0,12.0,13,0.00,,,0.00,1005.000000,,2013-07-28 20:43:00,
2013-07-28 13:53:00,106.0,45.0,-100.00,WNW,290,6.0,12.0,13,0.00,,,0.00,1005.000000,,2013-07-28 20:53:00,
2013-07-28 14:02:00,106.0,45.0,-100.00,WNW,290,6.0,12.0,13,0.00,,,0.00,1005.000000,,2013-07-28 21:02:00,
2013-07-28 14:12:00,106.0,45.0,-100.00,WNW,290,6.0,12.0,13,0.00,,,0.00,1005.000000,,2013-07-28 21:12:00,
2013-07-28 14:44:00,107.0,46.0,-100.00,West,275,6.0,15.0,13,0.00,,,0.00,974.000000,,2013-07-28 21:44:00,
2013-07-28 14:52:00,107.0,46.0,-100.00,West,275,6.0,15.0,13,0.00,,,0.00,974.000000,,2013-07-28 21:52:00,
2013-07-28 15:01:00,107.0,46.0,-100.00,West,275,6.0,15.0,13,0.00,,,0.00,974.000000,,2013-07-28 22:01:00,
2013-07-28 15:12:00,107.0,46.0,-100.00,West,275,6.0,15.0,13,0.00,,,0.00,974.000000,,2013-07-28 22:12:00,
2013-07-28 15:43:00,109.0,47.0,-100.00,WSW,239,5.0,14.0,13,0.00,,,0.00,889.000000,,2013-07-28 22:43:00,
2013-07-28 15:52:00,109.0,47.0,-100.00,WSW,239,5.0,14.0,13,0.00,,,0.00,889.000000,,2013-07-28 22:52:00,
2013-07-28 16:03:00,109.0,47.0,-100.00,WSW,239,5.0,14.0,13,0.00,,,0.00,889.000000,,2013-07-28 23:03:00,
2013-07-28 16:11:00,109.0,47.0,-100.00,WSW,239,5.0,14.0,13,0.00,,,0.00,889.000000,,2013-07-28 23:11:00,
2013-07-28 16:43:00,109.0,49.0,-100.00,West,271,7.0,13.0,14,0.00,,,0.00,737.000000,,2013-07-28 23:43:00,
2013-07-28 16:53:00,109.0,49.0,-100.00,West,271,7.0,13.0,14,0.00,,,0.00,737.000000,,2013-07-28 23:53:00,
2013-07-28 17:02:00,109.0,49.0,-100.00,West,271,7.0,13.0,14,0.00,,,0.00,737.000000,,2013-07-29 00:02:00,
2013-07-28 17:11:00,109.0,49.0,-100.00,West,271,7.0,13.0,14,0.00,,,0.00,737.000000,,2013-07-29 00:11:00,
2013-07-28 17:43:00,109.0,49.0,-100.00,West,274,7.0,14.0,14,0.00,,,-99.99,549.000000,,2013-07-29 00:43:00,
2013-07-28 17:52:00,109.0,49.0,-100.00,West,274,7.0,14.0,14,0.00,,,-99.99,549.000000,,2013-07-29 00:52:00,
2013-07-28 18:01:00,109.0,49.0,-100.00,West,274,7.0,14.0,14,0.00,,,-99.99,549.000000,,2013-07-29 01:01:00,
2013-07-28 18:11:00,109.0,49.0,-100.00,West,274,7.0,14.0,14,0.00,,,-99.99,549.000000,,2013-07-29 01:11:00,
2013-07-28 18:47:00,107.0,48.0,-100.00,West,279,8.0,16.0,14,0.00,,,0.00,343.000000,,2013-07-29 01:47:00,
2013-07-28 19:00:00,107.0,48.0,-100.00,West,279,8.0,16.0,14,0.00,,,0.00,343.000000,,2013-07-29 02:00:00,
2013-07-28 19:12:00,107.0,48.0,-100.00,West,279,8.0,16.0,14,0.00,,,0.00,343.000000,,2013-07-29 02:12:00,
2013-07-28 19:58:00,105.0,50.0,-100.00,West,274,6.0,12.0,16,0.00,,,0.00,131.000000,,2013-07-29 02:58:00,
2013-07-28 20:13:00,105.0,50.0,-100.00,West,274,6.0,12.0,16,0.00,,,0.00,131.000000,,2013-07-29 03:13:00,
2013-07-28 20:49:00,98.0,41.0,-100.00,WNW,301,13.0,19.0,14,0.00,,,0.00,8.000000,,2013-07-29 03:49:00,
2013-07-28 20:58:00,98.0,41.0,-100.00,WNW,301,13.0,19.0,14,0.00,,,0.00,8.000000,,2013-07-29 03:58:00,
2013-07-28 21:02:00,98.0,41.0,-100.00,WNW,301,13.0,19.0,14,0.00,,,0.00,8.000000,,2013-07-29 04:02:00,
2013-07-28 21:12:00,98.0,41.0,-100.00,WNW,301,13.0,19.0,14,0.00,,,0.00,8.000000,,2013-07-29 04:12:00,
2013-07-28 21:43:00,94.0,38.0,-100.00,SW,231,6.0,20.0,14,0.00,,,0.00,1.000000,,2013-07-29 04:43:00,
2013-07-28 21:53:00,94.0,38.0,-100.00,SW,231,6.0,20.0,14,0.00,,,0.00,1.000000,,2013-07-29 04:53:00,
2013-07-28 22:02:00,94.0,38.0,-100.00,SW,231,6.0,20.0,14,0.00,,,0.00,1.000000,,2013-07-29 05:02:00,
2013-07-28 22:12:00,94.0,38.0,-100.00,SW,231,6.0,20.0,14,0.00,,,0.00,1.000000,,2013-07-29 05:12:00,
2013-07-28 22:43:00,92.0,39.0,-100.00,West,267,8.0,15.0,16,0.00,,,0.00,1.000000,,2013-07-29 05:43:00,
2013-07-28 22:53:00,92.0,39.0,-100.00,West,267,8.0,15.0,16,0.00,,,0.00,1.000000,,2013-07-29 05:53:00,
2013-07-28 23:02:00,92.0,39.0,-100.00,West,267,8.0,15.0,16,0.00,,,0.00,1.000000,,2013-07-29 06:02:00,
2013-07-28 23:12:00,92.0,39.0,-100.00,West,267,8.0,15.0,16,0.00,,,0.00,1.000000,,2013-07-29 06:12:00,
2013-07-28 23:43:00,89.0,41.0,-100.00,South,186,4.0,9.0,19,0.00,,,0.00,1.000000,,2013-07-29 06:43:00,
2013-07-28 23:52:00,89.0,41.0,-100.00,South,186,4.0,9.0,19,0.00,,,0.00,1.000000,,2013-07-29 06:52:00,